Time;durP1;ratioP1;P1;durP2;ratioP2;P2;SDS_P1;SDS_P2;PMS_P1;PMS_P2;Temp;Humidity;BMP_temperature;BMP_pressure;BME280_temperature;BME280_humidity;BME280_pressure;Samples;Min_cycle;Max_cycle;Signal;HPM_P1;HPM_P2
2022/03/26 00:01:54;;;;;;;65.78;31.05;;;;;;;7.76;47.96;100160.09;5185086;28;20108;-84
2022/03/26 00:04:44;;;;;;;68.93;31.27;;;;;;;8.02;46.76;100159.38;5173374;28;20060;-84
2022/03/26 00:07:34;;;;;;;66.80;31.70;;;;;;;7.85;46.95;100181.59;5157344;28;20096;-83
2022/03/26 00:10:25;;;;;;;68.90;32.63;;;;;;;7.81;47.05;100153.66;5186096;28;20060;-84
2022/03/26 00:13:17;;;;;;;67.88;31.23;;;;;;;8.13;46.82;100173.56;5157381;28;20053;-84
2022/03/26 00:16:07;;;;;;;65.22;30.42;;;;;;;7.77;46.93;100182.91;5167341;28;20507;-85
2022/03/26 00:18:57;;;;;;;70.72;32.03;;;;;;;7.46;47.35;100164.66;5170581;28;20042;-83
2022/03/26 00:21:50;;;;;;;65.75;31.88;;;;;;;7.59;47.81;100175.31;5171022;28;20053;-84
2022/03/26 00:24:40;;;;;;;66.60;30.63;;;;;;;7.43;48.72;100178.88;5186275;28;20559;-83
2022/03/26 00:27:30;;;;;;;68.47;30.65;;;;;;;7.41;48.51;100185.19;5171132;28;20131;-83
2022/03/26 00:30:21;;;;;;;68.07;29.73;;;;;;;7.34;48.60;100190.00;5170936;28;20080;-83
2022/03/26 00:33:10;;;;;;;68.85;33.40;;;;;;;7.41;49.21;100193.94;5149473;28;20057;-83
2022/03/26 00:36:00;;;;;;;65.22;30.30;;;;;;;7.42;49.17;100194.81;5164386;28;20046;-83
2022/03/26 00:38:51;;;;;;;73.10;31.77;;;;;;;7.36;48.91;100195.19;5181714;28;20515;-83
2022/03/26 00:41:41;;;;;;;75.85;32.03;;;;;;;7.34;48.49;100181.25;5156967;28;20042;-83
2022/03/26 00:44:31;;;;;;;69.28;32.00;;;;;;;7.24;48.80;100173.03;5157253;28;20416;-83
2022/03/26 00:47:21;;;;;;;68.15;31.10;;;;;;;7.41;48.66;100179.91;5161730;28;20045;-83
2022/03/26 00:50:11;;;;;;;70.05;32.65;;;;;;;7.12;49.28;100171.13;5169632;28;20057;-83
2022/03/26 00:53:02;;;;;;;68.63;31.55;;;;;;;7.22;48.73;100198.69;5165172;28;20164;-83
2022/03/26 00:55:52;;;;;;;66.75;31.38;;;;;;;7.40;48.43;100186.16;5160306;28;20115;-84
2022/03/26 00:58:43;;;;;;;67.82;32.10;;;;;;;6.84;49.17;100183.34;5170045;28;20060;-84
2022/03/26 01:01:34;;;;;;;69.32;32.20;;;;;;;7.13;49.41;100199.22;5170440;28;20068;-84
2022/03/26 01:04:24;;;;;;;71.82;31.00;;;;;;;6.79;50.01;100175.72;5185268;28;20543;-83
2022/03/26 01:07:14;;;;;;;73.97;32.83;;;;;;;6.94;49.66;100196.84;5184652;28;20082;-84
2022/03/26 01:10:06;;;;;;;69.47;31.77;;;;;;;6.91;49.84;100192.59;5169638;28;20477;-83
2022/03/26 01:12:56;;;;;;;62.78;28.95;;;;;;;6.77;50.27;100172.31;5170432;28;20045;-84
2022/03/26 01:15:47;;;;;;;66.40;31.85;;;;;;;6.78;50.21;100195.09;5170214;28;20073;-85
2022/03/26 01:18:37;;;;;;;67.40;31.63;;;;;;;6.78;50.11;100191.63;5170634;28;20058;-84
2022/03/26 01:21:27;;;;;;;67.90;32.28;;;;;;;6.45;49.81;100162.81;5184706;28;20073;-83
2022/03/26 01:24:17;;;;;;;66.18;31.52;;;;;;;6.41;50.28;100185.00;5172030;28;20129;-83
2022/03/26 01:27:08;;;;;;;69.47;31.52;;;;;;;6.49;50.59;100181.00;5186792;28;20135;-83
2022/03/26 01:29:58;;;;;;;68.45;32.03;;;;;;;6.45;50.71;100181.25;5171999;28;20054;-84
2022/03/26 01:32:49;;;;;;;67.25;31.48;;;;;;;6.65;50.75;100194.13;5174580;28;20091;-83
2022/03/26 01:35:39;;;;;;;68.55;32.75;;;;;;;6.61;50.33;100191.75;5170368;28;20053;-84
2022/03/26 01:38:29;;;;;;;78.63;33.83;;;;;;;6.67;50.16;100189.63;5171867;28;20056;-85
2022/03/26 01:41:20;;;;;;;72.00;33.00;;;;;;;6.72;51.03;100199.88;5188129;28;20053;-85
2022/03/26 01:44:14;;;;;;;71.55;31.95;;;;;;;6.77;50.49;100197.84;5190557;28;20151;-85
2022/03/26 01:47:05;;;;;;;68.32;32.65;;;;;;;6.26;50.67;100197.28;5174095;28;20054;-83
2022/03/26 01:49:55;;;;;;;71.65;33.65;;;;;;;6.03;51.81;100201.22;5164671;28;20053;-83
2022/03/26 01:52:45;;;;;;;67.60;32.03;;;;;;;5.98;52.60;100188.28;5149469;28;20058;-83
2022/03/26 01:55:35;;;;;;;70.78;32.72;;;;;;;6.01;52.91;100185.47;5163963;28;20050;-83
2022/03/26 01:58:26;;;;;;;76.45;33.95;;;;;;;6.03;52.45;100165.19;5149141;28;20137;-83
2022/03/26 02:01:16;;;;;;;76.55;32.83;;;;;;;5.93;52.38;100174.53;5172186;28;20108;-84
2022/03/26 02:04:08;;;;;;;73.43;32.65;;;;;;;6.01;52.09;100179.38;5178161;28;20065;-84
2022/03/26 02:06:58;;;;;;;72.15;33.22;;;;;;;5.76;52.62;100166.69;5148467;28;20052;-84
2022/03/26 02:09:49;;;;;;;73.82;32.53;;;;;;;5.54;52.64;100136.28;5176770;28;20060;-84
2022/03/26 02:12:39;;;;;;;72.32;33.90;;;;;;;5.85;52.75;100188.06;5163853;28;20069;-84
2022/03/26 02:15:30;;;;;;;70.45;32.75;;;;;;;5.89;52.58;100194.03;5151885;28;20187;-83
2022/03/26 02:18:20;;;;;;;72.70;33.70;;;;;;;5.67;52.82;100162.78;5168832;28;20145;-85
2022/03/26 02:21:10;;;;;;;78.72;32.83;;;;;;;6.07;51.95;100177.25;5172034;28;20046;-84
2022/03/26 02:24:05;;;;;;;67.35;32.78;;;;;;;5.77;52.34;100171.03;5168931;28;20052;-83
2022/03/26 02:26:55;;;;;;;74.15;32.80;;;;;;;5.57;51.86;100169.47;5169762;28;20049;-83
2022/03/26 02:29:45;;;;;;;66.65;31.23;;;;;;;5.40;52.69;100162.50;5168970;28;20054;-85
2022/03/26 02:32:35;;;;;;;69.95;31.15;;;;;;;5.72;53.20;100180.94;5182790;28;20049;-84
2022/03/26 02:35:26;;;;;;;68.22;31.52;;;;;;;5.37;52.70;100173.19;5154167;28;20053;-84
2022/03/26 02:38:17;;;;;;;71.68;32.33;;;;;;;5.50;54.10;100199.69;5169250;28;20085;-84
2022/03/26 02:41:08;;;;;;;73.10;33.85;;;;;;;5.47;53.77;100165.66;5185650;28;20068;-84
2022/03/26 02:43:58;;;;;;;71.68;31.35;;;;;;;5.61;52.86;100171.00;5186796;28;20084;-83
2022/03/26 02:46:49;;;;;;;67.15;31.25;;;;;;;5.76;52.33;100167.56;5179441;28;20061;-84
2022/03/26 02:49:39;;;;;;;79.43;34.88;;;;;;;5.62;52.78;100155.13;5159665;28;20076;-84
2022/03/26 02:52:29;;;;;;;74.65;34.00;;;;;;;5.77;52.17;100156.09;5180227;28;20042;-86
2022/03/26 02:55:20;;;;;;;70.43;31.50;;;;;;;5.55;53.19;100160.81;5195204;28;20060;-86
2022/03/26 02:58:10;;;;;;;76.47;32.53;;;;;;;5.03;53.47;100114.47;5191991;28;20496;-85
2022/03/26 03:01:00;;;;;;;77.65;33.15;;;;;;;5.33;52.83;100143.56;5167627;28;20073;-85
2022/03/26 03:03:51;;;;;;;75.40;32.95;;;;;;;5.62;53.01;100170.91;5168411;28;20089;-84
2022/03/26 03:06:41;;;;;;;68.40;31.73;;;;;;;5.49;53.01;100155.88;5195411;28;20049;-84
2022/03/26 03:09:31;;;;;;;72.53;31.83;;;;;;;5.26;53.34;100152.69;5185189;28;20065;-84
2022/03/26 03:12:21;;;;;;;71.85;32.05;;;;;;;5.33;53.86;100169.88;5187701;28;20133;-85
2022/03/26 03:15:12;;;;;;;78.10;31.77;;;;;;;5.58;53.29;100172.03;5171907;28;20634;-84
2022/03/26 03:18:02;;;;;;;75.68;31.63;;;;;;;5.26;53.90;100175.53;5185269;28;20060;-85
2022/03/26 03:20:53;;;;;;;72.85;30.73;;;;;;;5.00;54.02;100164.63;5183453;28;20073;-84
2022/03/26 03:23:43;;;;;;;67.55;30.45;;;;;;;5.13;54.32;100165.69;5187035;28;20056;-84
2022/03/26 03:26:33;;;;;;;65.75;31.38;;;;;;;4.89;53.73;100138.88;5188276;28;20136;-83
2022/03/26 03:29:23;;;;;;;70.85;30.02;;;;;;;4.68;54.09;100156.59;5173800;28;20412;-83
2022/03/26 03:32:14;;;;;;;67.82;31.45;;;;;;;4.51;54.13;100132.97;5172545;28;20103;-83
2022/03/26 03:35:05;;;;;;;67.13;32.05;;;;;;;4.67;54.30;100160.16;5172739;28;20081;-84
2022/03/26 03:37:55;;;;;;;75.55;29.83;;;;;;;4.84;54.43;100175.06;5186604;28;20062;-83
2022/03/26 03:40:45;;;;;;;68.95;31.23;;;;;;;4.90;54.57;100181.75;5186803;28;20053;-83
2022/03/26 03:43:36;;;;;;;74.72;31.38;;;;;;;4.91;54.74;100165.09;5171736;28;20056;-83
2022/03/26 03:46:26;;;;;;;68.20;32.47;;;;;;;4.58;55.71;100162.41;5185128;28;20508;-83
2022/03/26 03:49:17;;;;;;;74.22;33.25;;;;;;;4.29;55.20;100133.19;5171760;28;20188;-83
2022/03/26 03:52:07;;;;;;;71.45;32.55;;;;;;;4.89;55.68;100172.19;5171568;28;20728;-83
2022/03/26 03:54:57;;;;;;;78.72;33.83;;;;;;;4.52;55.59;100116.28;5166887;28;20061;-83
2022/03/26 03:57:47;;;;;;;75.30;35.00;;;;;;;4.71;55.61;100171.38;5171252;28;20135;-84
2022/03/26 04:00:37;;;;;;;76.22;33.00;;;;;;;4.39;55.98;100157.22;5188448;28;20049;-83
2022/03/26 04:03:28;;;;;;;71.78;31.95;;;;;;;4.12;56.36;100147.13;5156744;28;20061;-84
2022/03/26 04:06:18;;;;;;;68.68;32.22;;;;;;;4.21;56.08;100172.94;5170204;28;20054;-84
2022/03/26 04:09:08;;;;;;;76.47;33.83;;;;;;;4.15;56.66;100154.88;5175619;28;20183;-84
2022/03/26 04:11:59;;;;;;;81.38;33.40;;;;;;;4.37;56.57;100144.16;5192352;28;20053;-84
2022/03/26 04:14:49;;;;;;;76.75;34.38;;;;;;;4.31;56.39;100156.75;5192661;28;20524;-84
2022/03/26 04:17:39;;;;;;;73.40;33.25;;;;;;;3.83;56.84;100135.41;5177857;28;20064;-84
2022/03/26 04:20:29;;;;;;;77.15;34.78;;;;;;;3.84;57.56;100141.50;5191737;28;20535;-83
2022/03/26 04:23:20;;;;;;;76.50;34.10;;;;;;;4.20;56.43;100168.59;5237656;22;20080;-68
2022/03/26 04:26:10;;;;;;;75.07;33.25;;;;;;;4.32;57.11;100169.78;5188476;28;20475;-69
2022/03/26 04:29:01;;;;;;;72.50;34.60;;;;;;;4.22;57.04;100173.78;5184581;28;20054;-69
2022/03/26 04:31:51;;;;;;;76.93;33.80;;;;;;;4.04;57.40;100174.66;5184318;28;20519;-69
2022/03/26 04:34:42;;;;;;;75.75;34.80;;;;;;;3.86;57.52;100177.25;5184162;28;20058;-69
2022/03/26 04:37:34;;;;;;;85.57;35.97;;;;;;;4.04;58.03;100188.66;5184441;28;20053;-69
2022/03/26 04:40:25;;;;;;;77.93;34.85;;;;;;;3.99;58.57;100178.38;5171049;28;20125;-68
2022/03/26 04:43:18;;;;;;;85.07;36.85;;;;;;;4.19;57.75;100190.53;5184491;28;20061;-68
2022/03/26 04:46:08;;;;;;;77.68;35.30;;;;;;;4.02;57.74;100189.66;5168988;28;20089;-69
2022/03/26 04:48:58;;;;;;;81.90;34.85;;;;;;;3.95;58.13;100194.34;5184201;28;20096;-69
2022/03/26 04:51:48;;;;;;;93.68;36.75;;;;;;;3.74;58.21;100194.44;5184272;28;20077;-68
2022/03/26 04:54:38;;;;;;;87.47;36.38;;;;;;;3.77;58.58;100177.69;5194708;28;20139;-69
2022/03/26 04:57:29;;;;;;;85.38;35.85;;;;;;;3.79;58.86;100196.84;5178157;28;20061;-69
2022/03/26 05:00:20;;;;;;;80.95;35.20;;;;;;;3.69;58.79;100193.78;5168422;28;20076;-69
2022/03/26 05:03:10;;;;;;;76.60;34.47;;;;;;;3.57;57.40;100194.34;5169266;28;20119;-69
2022/03/26 05:06:00;;;;;;;81.47;34.08;;;;;;;3.91;57.32;100183.16;5183069;28;20045;-69
2022/03/26 05:08:50;;;;;;;78.20;35.85;;;;;;;3.94;57.40;100192.63;5184421;28;20602;-69
2022/03/26 05:11:40;;;;;;;88.30;36.70;;;;;;;3.69;58.31;100199.03;5183787;28;20488;-68
2022/03/26 05:14:31;;;;;;;86.38;35.65;;;;;;;3.45;58.53;100189.66;5182071;28;20420;-69
2022/03/26 05:17:21;;;;;;;80.97;35.40;;;;;;;3.45;59.06;100203.63;5183542;28;20057;-69
2022/03/26 05:20:12;;;;;;;79.05;34.95;;;;;;;3.52;58.92;100214.69;5183290;28;20053;-69
2022/03/26 05:23:03;;;;;;;82.18;35.03;;;;;;;3.48;59.06;100219.22;5181863;28;20083;-69
2022/03/26 05:25:53;;;;;;;78.88;35.35;;;;;;;3.42;58.49;100216.03;5193728;28;20072;-69
2022/03/26 05:28:43;;;;;;;81.53;36.03;;;;;;;3.36;58.61;100216.28;5195362;28;20052;-68
2022/03/26 05:31:33;;;;;;;81.80;34.92;;;;;;;3.55;58.91;100206.69;5192681;28;20045;-68
2022/03/26 05:34:24;;;;;;;77.60;34.85;;;;;;;3.64;58.57;100222.00;5186279;28;20054;-68
2022/03/26 05:37:14;;;;;;;90.53;36.58;;;;;;;4.01;59.39;100217.69;5173954;28;20045;-69
2022/03/26 05:40:05;;;;;;;86.63;37.42;;;;;;;3.82;59.85;100222.09;5183466;28;20054;-69
2022/03/26 05:42:56;;;;;;;85.95;37.00;;;;;;;3.78;60.20;100213.50;5183319;28;20049;-69
2022/03/26 05:45:46;;;;;;;86.97;37.15;;;;;;;3.69;60.72;100219.16;5182759;28;20655;-67
2022/03/26 05:48:37;;;;;;;83.00;34.58;;;;;;;3.43;60.43;100215.94;5183011;28;20096;-69
2022/03/26 05:51:26;;;;;;;82.13;36.15;;;;;;;3.64;60.83;100235.13;5182408;28;20064;-69
2022/03/26 05:54:17;;;;;;;81.68;35.58;;;;;;;3.72;59.92;100237.38;5182024;28;20056;-70
2022/03/26 05:57:07;;;;;;;81.25;35.08;;;;;;;3.70;59.05;100240.06;5189537;28;20056;-69
2022/03/26 05:59:57;;;;;;;84.20;37.42;;;;;;;3.71;60.60;100252.28;5193321;28;20073;-68
2022/03/26 06:02:47;;;;;;;85.45;37.05;;;;;;;3.56;61.02;100226.75;5192861;28;20064;-70
2022/03/26 06:05:38;;;;;;;85.38;37.17;;;;;;;4.11;60.36;100260.94;5183188;28;20141;-67
2022/03/26 06:08:28;;;;;;;82.60;36.88;;;;;;;4.14;60.37;100258.19;5140533;28;20497;-67
2022/03/26 06:11:18;;;;;;;81.63;35.38;;;;;;;4.04;59.47;100262.16;5167181;28;20046;-68
2022/03/26 06:14:08;;;;;;;84.72;37.40;;;;;;;4.04;60.84;100270.03;5182749;28;20049;-67
2022/03/26 06:16:59;;;;;;;84.25;37.50;;;;;;;4.16;59.88;100277.31;5181974;28;20056;-68
2022/03/26 06:19:49;;;;;;;90.53;37.50;;;;;;;4.41;61.33;100284.91;5158425;28;20060;-67
2022/03/26 06:22:39;;;;;;;91.78;39.88;;;;;;;4.57;62.19;100285.00;5182385;28;20053;-68
2022/03/26 06:25:31;;;;;;;87.60;38.75;;;;;;;4.53;61.79;100283.44;5183802;28;20140;-68
2022/03/26 06:28:21;;;;;;;86.97;38.80;;;;;;;4.62;60.09;100296.13;5192165;28;20482;-67
2022/03/26 06:31:11;;;;;;;83.07;37.90;;;;;;;4.73;60.17;100287.72;5172332;28;20054;-68
2022/03/26 06:34:01;;;;;;;83.60;38.83;;;;;;;4.94;60.88;100291.94;5182670;28;20056;-67
2022/03/26 06:36:51;;;;;;;97.10;41.35;;;;;;;5.09;60.70;100274.53;5191530;28;20160;-69
2022/03/26 06:39:41;;;;;;;95.40;42.13;;;;;;;5.14;60.87;100293.56;5181606;28;20054;-67
2022/03/26 06:42:31;;;;;;;89.63;38.10;;;;;;;5.14;60.72;100295.34;5182501;28;20052;-67
2022/03/26 06:45:21;;;;;;;87.18;38.65;;;;;;;5.14;60.69;100287.47;5157803;28;20052;-67
2022/03/26 06:48:11;;;;;;;84.07;38.10;;;;;;;5.30;59.48;100304.16;5184375;28;20577;-66
2022/03/26 06:51:03;;;;;;;82.10;37.58;;;;;;;5.42;59.38;100306.13;5175519;28;20415;-67
2022/03/26 06:53:53;;;;;;;85.68;37.72;;;;;;;5.46;59.11;100306.81;5182165;28;20180;-69
2022/03/26 06:56:43;;;;;;;85.50;38.95;;;;;;;5.62;58.92;100299.84;5166407;28;20478;-68
2022/03/26 06:59:39;;;;;;;95.43;40.05;;;;;;;6.00;58.10;100309.31;5167977;28;20161;-68
2022/03/26 07:02:29;;;;;;;84.45;36.92;;;;;;;6.24;56.36;100307.97;5166923;28;20100;-69
2022/03/26 07:05:20;;;;;;;83.82;35.83;;;;;;;6.47;55.99;100304.06;5181574;28;20057;-67
2022/03/26 07:08:10;;;;;;;80.05;34.28;;;;;;;6.76;54.37;100296.31;5166792;28;20053;-69
2022/03/26 07:11:02;;;;;;;75.00;33.05;;;;;;;6.89;52.63;100280.63;5181954;28;20054;-67
2022/03/26 07:13:52;;;;;;;66.63;29.40;;;;;;;6.98;52.03;100294.13;5151423;28;20072;-68
2022/03/26 07:16:42;;;;;;;60.55;30.10;;;;;;;7.22;52.05;100304.19;5181224;28;20085;-69
2022/03/26 07:19:32;;;;;;;71.00;28.63;;;;;;;7.37;51.17;100303.28;5181698;28;20049;-67
2022/03/26 07:22:22;;;;;;;67.72;30.52;;;;;;;7.56;51.51;100302.19;5166724;28;20046;-70
2022/03/26 07:25:12;;;;;;;70.25;30.50;;;;;;;8.18;51.46;100302.75;5166472;28;20065;-71
2022/03/26 07:28:03;;;;;;;64.38;28.10;;;;;;;9.07;46.81;100311.09;5180856;28;20052;-69
2022/03/26 07:30:53;;;;;;;69.10;29.60;;;;;;;9.81;45.72;100312.22;5147038;28;20068;-69
2022/03/26 07:33:43;;;;;;;63.97;29.95;;;;;;;10.52;44.48;100313.38;5159729;28;20053;-70
2022/03/26 07:36:33;;;;;;;63.75;29.98;;;;;;;10.58;46.15;100317.41;5179879;28;20087;-68
2022/03/26 07:39:24;;;;;;;59.92;27.98;;;;;;;11.05;44.95;100300.63;5181122;28;20078;-68
2022/03/26 07:42:14;;;;;;;63.20;30.02;;;;;;;11.97;42.94;100308.69;5181045;28;20689;-68
2022/03/26 07:45:04;;;;;;;69.03;30.05;;;;;;;12.89;39.83;100312.78;5178624;28;20053;-68
2022/03/26 07:47:56;;;;;;;61.85;28.35;;;;;;;11.73;41.53;100311.44;5173489;28;20057;-68
2022/03/26 07:50:46;;;;;;;60.63;27.67;;;;;;;13.39;39.48;100317.56;5173384;28;20045;-69
2022/03/26 07:53:36;;;;;;;53.15;26.27;;;;;;;13.77;38.43;100308.94;5158771;28;20196;-67
2022/03/26 07:56:27;;;;;;;64.43;27.92;;;;;;;13.14;40.38;100310.72;5161693;28;20172;-68
2022/03/26 07:59:18;;;;;;;52.28;26.02;;;;;;;14.23;36.93;100293.41;5157031;28;20521;-68
2022/03/26 08:02:08;;;;;;;60.58;26.25;;;;;;;13.52;38.31;100314.69;5156351;28;20049;-68
2022/03/26 08:04:59;;;;;;;58.55;26.63;;;;;;;13.96;37.29;100316.19;5174298;28;20057;-68
2022/03/26 08:07:50;;;;;;;57.58;26.67;;;;;;;13.09;38.65;100313.78;5169984;28;20049;-68
2022/03/26 08:10:40;;;;;;;53.85;26.52;;;;;;;13.79;38.58;100314.16;5185238;28;20100;-68
2022/03/26 08:13:33;;;;;;;57.03;25.80;;;;;;;14.13;37.22;100325.41;5170286;28;20531;-68
2022/03/26 08:16:23;;;;;;;56.38;27.08;;;;;;;13.98;38.11;100300.09;5152035;28;20133;-69
2022/03/26 08:19:13;;;;;;;54.67;26.58;;;;;;;14.84;36.83;100322.69;5186419;28;20054;-68
2022/03/26 08:22:04;;;;;;;55.95;27.17;;;;;;;15.17;36.59;100312.59;5153766;28;20155;-68
2022/03/26 08:24:55;;;;;;;53.28;25.88;;;;;;;15.70;35.19;100325.50;5165879;28;20068;-68
2022/03/26 08:27:45;;;;;;;55.47;25.10;;;;;;;15.87;36.20;100316.72;5183313;28;20058;-68
2022/03/26 08:30:35;;;;;;;52.70;26.17;;;;;;;16.11;35.42;100320.69;5184077;28;20068;-69
2022/03/26 08:33:26;;;;;;;51.70;25.35;;;;;;;15.71;35.34;100322.66;5168648;28;20069;-69
2022/03/26 08:36:17;;;;;;;51.90;25.05;;;;;;;16.45;33.17;100323.63;5179984;28;20060;-69
2022/03/26 08:39:07;;;;;;;55.08;25.08;;;;;;;15.98;33.96;100321.88;5184546;28;20572;-68
2022/03/26 08:41:57;;;;;;;52.55;26.00;;;;;;;16.60;33.97;100330.19;5184369;28;20215;-68
2022/03/26 08:44:47;;;;;;;52.42;24.92;;;;;;;17.00;33.04;100323.59;5184221;28;20061;-67
2022/03/26 08:47:37;;;;;;;53.47;25.95;;;;;;;17.11;32.47;100333.22;5168987;28;20053;-68
2022/03/26 08:50:27;;;;;;;50.85;26.25;;;;;;;16.38;33.64;100318.03;5155540;28;20053;-69
2022/03/26 08:53:17;;;;;;;49.50;25.92;;;;;;;16.70;33.67;100340.00;5183130;28;20180;-70
2022/03/26 08:56:08;;;;;;;49.72;26.13;;;;;;;16.18;34.73;100330.66;5180573;28;20168;-68
2022/03/26 08:58:58;;;;;;;52.97;26.77;;;;;;;17.31;32.60;100334.75;5173375;28;21433;-70
2022/03/26 09:01:49;;;;;;;56.63;26.75;;;;;;;17.18;35.17;100326.25;5182104;28;20526;-68
2022/03/26 09:04:40;;;;;;;58.53;26.42;;;;;;;18.56;30.61;100317.41;5177363;28;20677;-68
2022/03/26 09:07:30;;;;;;;56.42;27.05;;;;;;;17.98;31.82;100331.56;5167905;28;20201;-69
2022/03/26 09:10:20;;;;;;;52.67;25.67;;;;;;;18.80;32.48;100330.09;5168152;28;20187;-69
2022/03/26 09:13:11;;;;;;;51.30;25.90;;;;;;;18.11;30.16;100326.59;5171446;28;20045;-70
2022/03/26 09:16:01;;;;;;;54.92;26.95;;;;;;;19.17;30.35;100316.22;5178789;28;20049;-67
2022/03/26 09:18:52;;;;;;;53.60;27.88;;;;;;;18.74;30.89;100326.25;5153655;28;20050;-67
2022/03/26 09:21:42;;;;;;;55.40;27.55;;;;;;;19.10;29.12;100322.41;5177599;28;20065;-69
2022/03/26 09:24:32;;;;;;;56.40;28.05;;;;;;;20.24;29.80;100291.84;5158922;28;20100;-68
2022/03/26 09:27:22;;;;;;;51.55;27.48;;;;;;;20.01;28.00;100310.59;5166588;28;20095;-70
2022/03/26 09:30:15;;;;;;;51.20;26.52;;;;;;;19.16;29.84;100303.78;5183040;28;20081;-69
2022/03/26 09:33:06;;;;;;;51.13;26.98;;;;;;;19.18;29.33;100295.56;5183668;28;20132;-68
2022/03/26 09:35:56;;;;;;;55.60;28.65;;;;;;;20.23;29.02;100299.09;5182577;28;20611;-68
2022/03/26 09:38:49;;;;;;;62.35;28.60;;;;;;;20.69;29.85;100299.19;5162333;28;20054;-69
2022/03/26 09:41:40;;;;;;;61.15;29.27;;;;;;;20.77;27.43;100298.34;5164072;28;20061;-68
2022/03/26 09:44:32;;;;;;;55.78;28.25;;;;;;;19.66;29.43;100300.06;5166694;28;20467;-70
2022/03/26 09:47:23;;;;;;;51.53;27.75;;;;;;;20.60;30.58;100293.03;5163145;28;20080;-70
2022/03/26 09:50:13;;;;;;;45.97;26.83;;;;;;;21.62;27.38;100291.94;5172415;28;20052;-70
2022/03/26 09:53:03;;;;;;;54.60;28.13;;;;;;;21.03;27.69;100289.91;5183209;28;20048;-70
2022/03/26 09:55:54;;;;;;;50.75;27.42;;;;;;;20.53;28.16;100286.69;5182589;28;20143;-68
2022/03/26 09:58:44;;;;;;;60.97;27.85;;;;;;;21.13;29.06;100289.66;5167649;28;20046;-68
2022/03/26 10:01:34;;;;;;;51.45;27.98;;;;;;;21.92;27.94;100293.66;5182802;28;20050;-69
2022/03/26 10:04:35;;;;;;;59.50;28.88;;;;;;;20.53;27.72;100292.06;5167105;28;20076;-69
2022/03/26 10:07:30;;;;;;;54.78;28.73;;;;;;;21.40;27.42;100280.19;5182734;28;20061;-70
2022/03/26 10:10:23;;;;;;;63.25;30.35;;;;;;;19.38;30.16;100283.44;5168023;28;20053;-68
2022/03/26 10:13:32;;;;;;;59.08;28.95;;;;;;;20.86;28.28;100275.69;5170210;28;20046;-69
2022/03/26 10:16:22;;;;;;;57.35;29.15;;;;;;;20.21;28.72;100271.50;5188434;28;20052;-72
2022/03/26 10:19:21;;;;;;;56.47;29.65;;;;;;;20.71;27.89;100270.22;5184838;28;20058;-69
2022/03/26 10:22:32;;;;;;;55.47;27.40;;;;;;;21.23;29.72;100268.69;5180025;28;20065;-68
2022/03/26 10:25:23;;;;;;;59.17;30.38;;;;;;;22.05;26.13;100266.84;5179149;28;20116;-69
2022/03/26 10:28:23;;;;;;;52.75;25.77;;;;;;;20.15;24.88;100229.94;5181321;28;20566;-71
2022/03/26 10:34:36;;;;;;;45.72;24.20;;;;;;;20.28;25.45;100256.28;5120479;28;20050;-69
2022/03/26 10:37:26;;;;;;;71.97;25.88;;;;;;;20.10;25.49;100258.41;5180126;28;20132;-68
2022/03/26 10:40:21;;;;;;;121.15;30.77;;;;;;;18.38;25.68;100266.50;5180333;28;20152;-67
2022/03/26 10:43:13;;;;;;;52.80;25.70;;;;;;;18.70;27.19;100262.19;5180597;28;20131;-68
2022/03/26 10:46:04;;;;;;;45.15;25.38;;;;;;;19.64;26.42;100260.91;5184689;28;20046;-68
2022/03/26 10:49:02;;;;;;;45.95;24.33;;;;;;;19.48;25.46;100259.06;5181979;28;20536;-70
2022/03/26 10:51:53;;;;;;;43.00;24.35;;;;;;;19.50;28.57;100257.00;5181679;28;20052;-70
2022/03/26 10:54:46;;;;;;;68.28;26.38;;;;;;;19.61;25.48;100248.59;5181697;28;20125;-68
2022/03/26 10:57:38;;;;;;;38.70;23.05;;;;;;;20.73;25.45;100233.16;5170998;28;20443;-68
2022/03/26 11:00:28;;;;;;;43.92;23.63;;;;;;;19.92;25.54;100229.84;5178906;28;20069;-68
2022/03/26 11:03:20;;;;;;;36.28;21.45;;;;;;;20.62;25.16;100237.09;5179230;28;20038;-68
2022/03/26 11:06:13;;;;;;;46.22;23.10;;;;;;;20.79;24.65;100239.69;5180566;28;20376;-69
2022/03/26 11:09:04;;;;;;;39.13;22.15;;;;;;;20.80;25.04;100239.53;5181534;28;20678;-69
2022/03/26 11:11:56;;;;;;;39.60;21.98;;;;;;;20.24;25.00;100237.97;5179998;28;20045;-69
2022/03/26 11:14:48;;;;;;;41.80;22.55;;;;;;;20.29;25.13;100236.41;5180464;28;20424;-68
2022/03/26 11:18:14;;;;;;;40.67;22.75;;;;;;;20.45;25.73;100231.97;5179464;28;20052;-68
2022/03/26 11:21:29;;;;;;;44.17;23.63;;;;;;;20.39;25.36;100233.50;5177863;28;20112;-67
2022/03/26 11:24:58;;;;;;;37.42;22.40;;;;;;;19.82;24.87;100226.53;5179261;28;20057;-69
2022/03/26 11:27:48;;;;;;;42.88;22.77;;;;;;;20.61;24.45;100221.94;5175460;28;20053;-68
2022/03/26 11:30:58;;;;;;;42.47;22.33;;;;;;;20.62;26.83;100215.53;5182862;28;20053;-69
2022/03/26 11:33:49;;;;;;;43.30;22.75;;;;;;;20.90;24.27;100214.19;5184656;28;20123;-70
2022/03/26 11:36:39;;;;;;;42.60;23.45;;;;;;;20.10;24.54;100210.78;5184696;28;20455;-71
2022/03/26 11:39:42;;;;;;;43.08;23.98;;;;;;;19.84;25.61;100223.69;5169955;28;20100;-70
2022/03/26 11:42:37;;;;;;;40.83;22.23;;;;;;;21.10;24.69;100212.66;5182024;28;20050;-70
2022/03/26 11:51:58;;;;;;;37.88;21.52;;;;;;;19.39;24.45;100196.34;5182339;28;20054;-72
2022/03/26 11:54:53;;;;;;;39.42;21.33;;;;;;;20.02;25.33;100193.81;5150395;28;20192;-71
2022/03/26 11:57:43;;;;;;;39.65;19.92;;;;;;;20.30;25.37;100195.03;5176948;28;20253;-71
2022/03/26 12:00:55;;;;;;;38.03;20.02;;;;;;;20.90;24.71;100190.75;5169403;28;20484;-68
2022/03/26 12:03:48;;;;;;;35.42;20.25;;;;;;;20.21;24.43;100192.56;5183978;28;20441;-68
2022/03/26 12:06:58;;;;;;;34.58;20.25;;;;;;;20.42;26.14;100196.28;5179539;28;20060;-69
2022/03/26 12:10:09;;;;;;;38.67;20.02;;;;;;;20.81;25.08;100186.44;5175000;28;20057;-68
2022/03/26 12:13:02;;;;;;;44.15;20.63;;;;;;;20.99;24.26;100176.19;5182826;28;20049;-68
2022/03/26 12:16:03;;;;;;;37.22;20.83;;;;;;;20.49;23.73;100184.78;5167536;28;20054;-68
2022/03/26 12:18:53;;;;;;;38.65;21.80;;;;;;;20.05;25.22;100164.69;5166660;28;20057;-68
2022/03/26 12:21:49;;;;;;;41.50;21.40;;;;;;;21.14;23.86;100178.91;5183693;28;20056;-69
2022/03/26 12:24:40;;;;;;;34.25;18.65;;;;;;;20.90;25.00;100161.09;5179403;28;20096;-68
2022/03/26 12:27:37;;;;;;;38.65;19.45;;;;;;;20.42;24.31;100165.81;5165195;28;20049;-69
2022/03/26 12:30:28;;;;;;;39.50;19.40;;;;;;;20.55;24.88;100160.69;5180911;28;20089;-69
2022/03/26 12:33:21;;;;;;;35.10;16.67;;;;;;;20.39;25.24;100161.59;5187148;28;20049;-69
2022/03/26 12:36:13;;;;;;;35.50;19.33;;;;;;;19.83;23.67;100149.31;5189461;28;20045;-70
2022/03/26 12:39:08;;;;;;;32.35;18.42;;;;;;;19.54;24.90;100152.63;5165758;28;20523;-68
2022/03/26 12:41:59;;;;;;;36.35;18.17;;;;;;;20.44;23.69;100166.47;5163697;28;20083;-67
2022/03/26 12:44:51;;;;;;;34.17;17.13;;;;;;;20.35;23.42;100151.38;5178925;28;20056;-68
2022/03/26 12:47:46;;;;;;;35.30;18.20;;;;;;;19.27;24.10;100140.41;5179679;28;20655;-70
2022/03/26 12:50:44;;;;;;;29.95;16.10;;;;;;;20.13;21.54;100145.81;5178230;28;20093;-69
2022/03/26 12:53:37;;;;;;;33.03;18.23;;;;;;;20.12;24.50;100136.03;5179670;28;20191;-68
2022/03/26 12:56:27;;;;;;;34.17;18.58;;;;;;;19.60;24.81;100133.94;5179755;28;20056;-69
2022/03/26 12:59:18;;;;;;;32.45;17.73;;;;;;;19.57;25.44;100136.09;5187929;28;20216;-70
2022/03/26 13:02:10;;;;;;;29.65;16.27;;;;;;;19.85;24.19;100140.06;5183096;28;20065;-70
2022/03/26 13:05:00;;;;;;;30.05;15.55;;;;;;;20.36;22.00;100145.84;5152542;28;20132;-70
2022/03/26 13:07:52;;;;;;;393.00;196.73;;;;;;;20.39;24.86;100139.22;5167754;28;20053;-69
2022/03/26 13:10:43;;;;;;;110.10;58.63;;;;;;;20.60;22.63;100128.66;5177888;28;20080;-69
2022/03/26 13:13:48;;;;;;;37.35;20.83;;;;;;;19.89;24.26;100136.00;5170854;28;20057;-68
2022/03/26 13:16:39;;;;;;;47.40;23.80;;;;;;;20.21;23.67;100134.13;5180051;28;20420;-69